Time;durP1;ratioP1;P1;durP2;ratioP2;P2;SDS_P1;SDS_P2;PMS_P1;PMS_P2;Temp;Humidity;BMP_temperature;BMP_pressure;BME280_temperature;BME280_humidity;BME280_pressure;Samples;Min_cycle;Max_cycle;Signal;HPM_P1;HPM_P2
2022/06/06 00:01:50;;;;;;;8.38;3.00;;;;;;;;;;5052207;28;20025;-68
2022/06/06 00:04:18;;;;;;;5.60;2.60;;;;;;;;;;5051530;28;20056;-70
2022/06/06 00:06:46;;;;;;;6.15;2.80;;;;;;;;;;5051622;28;20025;-67
2022/06/06 00:09:13;;;;;;;5.10;2.72;;;;;;;;;;5051710;28;20472;-68
2022/06/06 00:11:40;;;;;;;6.35;2.90;;;;;;;;;;5051078;28;20027;-70
2022/06/06 00:14:07;;;;;;;6.40;2.92;;;;;;;;;;5051387;28;20491;-67
2022/06/06 00:16:32;;;;;;;6.45;2.70;;;;;;;;;;5051635;28;20473;-67
2022/06/06 00:18:58;;;;;;;3.75;2.60;;;;;;;;;;5051448;28;20164;-69
2022/06/06 00:21:23;;;;;;;5.07;2.60;;;;;;;;;;5051525;28;20507;-68
2022/06/06 00:23:49;;;;;;;7.20;3.15;;;;;;;;;;5051277;28;20419;-68
2022/06/06 00:26:15;;;;;;;5.32;2.85;;;;;;;;;;5051563;28;20106;-69
2022/06/06 00:28:44;;;;;;;6.22;2.85;;;;;;;;;;5051285;28;20043;-67
2022/06/06 00:36:39;;;;;;;5.45;2.78;;;;;;;;;;5051576;28;20043;-73
2022/06/06 00:39:07;;;;;;;6.15;3.20;;;;;;;;;;5051262;28;20461;-67
2022/06/06 00:41:37;;;;;;;6.18;3.45;;;;;;;;;;5051177;28;20490;-68
2022/06/06 00:44:09;;;;;;;6.30;3.20;;;;;;;;;;5051045;28;20064;-67
2022/06/06 00:46:38;;;;;;;5.97;3.22;;;;;;;;;;5050938;28;20053;-68
2022/06/06 00:49:05;;;;;;;7.22;3.28;;;;;;;;;;5050899;28;20488;-71
2022/06/06 00:51:31;;;;;;;5.65;2.90;;;;;;;;;;5050791;28;20616;-67
2022/06/06 00:53:57;;;;;;;4.57;2.97;;;;;;;;;;5050683;28;20025;-65
2022/06/06 00:56:51;;;;;;;5.32;2.95;;;;;;;;;;5050859;28;20033;-68
2022/06/06 00:59:23;;;;;;;5.70;3.00;;;;;;;;;;5049238;28;20680;-67
2022/06/06 01:01:49;;;;;;;6.70;3.00;;;;;;;;;;5050911;28;20033;-66
2022/06/06 01:04:18;;;;;;;7.38;3.20;;;;;;;;;;5050638;28;20110;-69
2022/06/06 01:06:47;;;;;;;6.30;3.38;;;;;;;;;;5050447;28;20086;-68
2022/06/06 01:09:14;;;;;;;5.45;3.20;;;;;;;;;;5050490;28;20029;-69
2022/06/06 01:11:42;;;;;;;9.15;3.30;;;;;;;;;;5050411;28;20114;-68
2022/06/06 01:14:11;;;;;;;6.85;3.50;;;;;;;;;;5050639;28;20033;-70
2022/06/06 01:16:51;;;;;;;8.93;3.58;;;;;;;;;;5050770;28;20029;-70
2022/06/06 01:19:19;;;;;;;;;;;;;;;;;;5051228;28;20052;-65
2022/06/06 01:21:45;;;;;;;5.40;3.40;;;;;;;;;;5049575;28;20330;-67
2022/06/06 01:24:15;;;;;;;10.40;3.92;;;;;;;;;;5049982;28;20040;-67
2022/06/06 01:26:52;;;;;;;8.88;3.60;;;;;;;;;;5050531;28;20033;-67
2022/06/06 01:29:28;;;;;;;8.73;3.50;;;;;;;;;;5050245;28;20029;-68
2022/06/06 01:32:19;;;;;;;6.88;3.40;;;;;;;;;;5050549;28;20032;-68
2022/06/06 01:34:48;;;;;;;7.10;3.60;;;;;;;;;;5050138;28;20089;-67
2022/06/06 01:37:35;;;;;;;6.30;3.53;;;;;;;;;;5050311;28;20021;-71
2022/06/06 01:40:05;;;;;;;5.57;3.25;;;;;;;;;;5050259;28;20021;-68
2022/06/06 01:42:44;;;;;;;8.77;3.53;;;;;;;;;;5049845;28;20021;-67
2022/06/06 01:45:10;;;;;;;7.40;3.20;;;;;;;;;;5049779;28;20064;-69
2022/06/06 01:47:44;;;;;;;5.82;3.10;;;;;;;;;;5050234;28;20103;-67
2022/06/06 01:50:11;;;;;;;5.15;3.03;;;;;;;;;;5050035;28;20523;-67
2022/06/06 01:53:05;;;;;;;5.53;3.00;;;;;;;;;;5049873;28;20037;-68
2022/06/06 01:55:33;;;;;;;6.63;2.85;;;;;;;;;;5048050;28;20408;-68
2022/06/06 01:58:02;;;;;;;6.68;3.10;;;;;;;;;;5048798;28;20036;-67
2022/06/06 02:00:30;;;;;;;6.47;3.00;;;;;;;;;;5049813;28;20267;-67
2022/06/06 02:02:55;;;;;;;9.68;2.63;;;;;;;;;;5049794;28;20028;-70
2022/06/06 02:05:21;;;;;;;7.70;3.03;;;;;;;;;;5049646;28;20066;-67
2022/06/06 02:07:47;;;;;;;6.85;3.13;;;;;;;;;;5049677;28;20502;-67
2022/06/06 02:10:15;;;;;;;5.72;2.90;;;;;;;;;;5049826;28;20025;-67
2022/06/06 02:12:42;;;;;;;6.18;2.70;;;;;;;;;;5049971;28;20079;-67
2022/06/06 02:15:10;;;;;;;4.53;2.60;;;;;;;;;;5049590;28;20032;-66
2022/06/06 02:17:35;;;;;;;12.13;3.38;;;;;;;;;;5049746;28;20060;-67
2022/06/06 02:20:04;;;;;;;5.28;3.17;;;;;;;;;;5049530;28;20053;-68
2022/06/06 02:22:30;;;;;;;5.93;2.70;;;;;;;;;;5049419;28;20049;-69
2022/06/06 02:24:55;;;;;;;7.43;3.00;;;;;;;;;;5049722;28;20061;-68
2022/06/06 02:27:21;;;;;;;4.80;3.00;;;;;;;;;;5049766;28;20068;-67
2022/06/06 02:29:46;;;;;;;4.90;2.72;;;;;;;;;;5049560;28;20033;-69
2022/06/06 02:32:12;;;;;;;6.50;3.05;;;;;;;;;;5049667;28;20036;-68
2022/06/06 02:34:38;;;;;;;6.22;2.97;;;;;;;;;;5052572;28;20025;-70
2022/06/06 02:37:04;;;;;;;5.03;3.03;;;;;;;;;;5053225;28;20029;-68
2022/06/06 02:39:30;;;;;;;6.38;2.83;;;;;;;;;;5053776;28;20120;-68
2022/06/06 02:41:56;;;;;;;4.82;2.75;;;;;;;;;;5053570;28;20120;-69
2022/06/06 02:44:22;;;;;;;6.57;3.00;;;;;;;;;;5053452;28;20159;-69
2022/06/06 02:46:47;;;;;;;6.13;3.20;;;;;;;;;;5053463;28;20140;-68
2022/06/06 02:49:13;;;;;;;4.60;2.83;;;;;;;;;;5053253;28;20047;-68
2022/06/06 02:51:38;;;;;;;4.85;3.13;;;;;;;;;;5052873;28;20028;-69
2022/06/06 02:54:04;;;;;;;6.18;3.13;;;;;;;;;;5053309;28;20071;-68
2022/06/06 02:56:29;;;;;;;6.00;3.30;;;;;;;;;;5052996;28;20106;-68
2022/06/06 02:58:57;;;;;;;6.60;3.00;;;;;;;;;;5053260;28;20048;-68
2022/06/06 03:01:22;;;;;;;7.50;3.05;;;;;;;;;;5053225;28;20124;-68
2022/06/06 03:03:48;;;;;;;5.95;3.08;;;;;;;;;;5053151;28;20547;-67
2022/06/06 03:06:42;;;;;;;4.72;2.83;;;;;;;;;;5053008;28;20082;-67
2022/06/06 03:09:10;;;;;;;5.35;3.08;;;;;;;;;;5051495;28;20059;-71
2022/06/06 03:11:57;;;;;;;5.85;2.80;;;;;;;;;;5052672;28;20029;-68
2022/06/06 03:14:44;;;;;;;6.28;3.13;;;;;;;;;;5052937;28;20096;-67
2022/06/06 03:22:59;;;;;;;5.68;3.20;;;;;;;;;;5052329;28;20055;-70
2022/06/06 03:25:36;;;;;;;7.03;3.38;;;;;;;;;;5052696;28;20362;-68
2022/06/06 03:28:13;;;;;;;6.13;3.70;;;;;;;;;;5052665;28;20017;-68
2022/06/06 03:31:17;;;;;;;7.90;3.50;;;;;;;;;;5052559;28;20028;-68
2022/06/06 03:34:07;;;;;;;5.75;3.20;;;;;;;;;;5031010;28;20139;-71
2022/06/06 03:36:52;;;;;;;8.70;3.58;;;;;;;;;;5052374;28;20036;-68
2022/06/06 03:39:29;;;;;;;5.65;3.40;;;;;;;;;;5052386;28;20024;-70
2022/06/06 03:42:10;;;;;;;5.85;3.58;;;;;;;;;;5052421;28;20043;-68
2022/06/06 03:45:31;;;;;;;6.10;3.70;;;;;;;;;;5051478;28;20103;-66
2022/06/06 03:48:15;;;;;;;;;;;;;;;;;;5015239;28;20046;-68
2022/06/06 03:50:49;;;;;;;6.95;3.83;;;;;;;;;;5052178;28;19952;-68
2022/06/06 03:53:31;;;;;;;8.05;3.50;;;;;;;;;;5052082;28;20044;-69
2022/06/06 03:56:24;;;;;;;7.32;3.20;;;;;;;;;;5052093;28;20246;-67
2022/06/06 03:58:51;;;;;;;6.15;3.50;;;;;;;;;;5051995;28;20025;-68
2022/06/06 04:01:21;;;;;;;8.23;3.20;;;;;;;;;;5051821;28;20045;-69
2022/06/06 04:03:49;;;;;;;6.40;3.40;;;;;;;;;;5052021;28;20358;-67
2022/06/06 04:06:16;;;;;;;5.28;3.55;;;;;;;;;;5051545;28;20105;-68
2022/06/06 04:08:42;;;;;;;5.45;3.53;;;;;;;;;;5051806;28;20021;-67
2022/06/06 04:11:17;;;;;;;5.90;3.40;;;;;;;;;;5051897;28;20028;-68
2022/06/06 04:13:57;;;;;;;5.25;3.20;;;;;;;;;;5051953;28;20021;-68
2022/06/06 04:16:40;;;;;;;5.28;3.45;;;;;;;;;;5051654;28;20104;-69
2022/06/06 04:19:27;;;;;;;7.75;4.00;;;;;;;;;;5051734;28;20112;-67
2022/06/06 04:22:01;;;;;;;6.25;3.55;;;;;;;;;;5049591;28;20120;-67
2022/06/06 04:24:51;;;;;;;5.95;3.55;;;;;;;;;;5051695;28;20484;-67
2022/06/06 04:27:19;;;;;;;9.75;3.78;;;;;;;;;;5051383;28;20088;-67
2022/06/06 04:29:58;;;;;;;7.50;3.70;;;;;;;;;;5051393;28;20412;-71
2022/06/06 04:32:46;;;;;;;7.30;3.80;;;;;;;;;;5051259;28;20035;-68
2022/06/06 04:35:17;;;;;;;5.75;3.67;;;;;;;;;;5051294;28;20266;-68
2022/06/06 04:37:54;;;;;;;5.97;3.53;;;;;;;;;;5050952;28;20495;-70
2022/06/06 04:40:35;;;;;;;14.35;3.80;;;;;;;;;;5051251;28;20040;-71
2022/06/06 04:43:19;;;;;;;8.60;3.88;;;;;;;;;;5051081;28;20036;-66
2022/06/06 04:46:06;;;;;;;5.78;3.35;;;;;;;;;;5051088;28;20412;-68
2022/06/06 04:48:34;;;;;;;6.20;3.50;;;;;;;;;;5050973;28;20029;-67
2022/06/06 04:51:00;;;;;;;6.10;3.83;;;;;;;;;;5050865;28;20424;-72
2022/06/06 04:53:29;;;;;;;5.82;3.85;;;;;;;;;;5050714;28;20598;-74
2022/06/06 04:55:56;;;;;;;9.57;4.05;;;;;;;;;;5049236;28;20025;-73
2022/06/06 04:58:27;;;;;;;10.93;4.70;;;;;;;;;;5050809;28;20074;-66
2022/06/06 05:00:53;;;;;;;5.72;3.85;;;;;;;;;;5050972;28;20033;-73
2022/06/06 05:03:19;;;;;;;8.57;4.30;;;;;;;;;;5050844;28;20027;-72
2022/06/06 05:06:05;;;;;;;6.13;4.13;;;;;;;;;;5050377;28;20017;-72
2022/06/06 05:09:02;;;;;;;11.60;4.32;;;;;;;;;;5050604;28;20502;-74
2022/06/06 05:12:03;;;;;;;5.97;4.10;;;;;;;;;;5050452;28;20025;-73
2022/06/06 05:14:48;;;;;;;10.43;4.20;;;;;;;;;;5044847;28;20485;-71
2022/06/06 05:17:52;;;;;;;7.82;4.50;;;;;;;;;;5050695;28;20277;-73
2022/06/06 05:20:32;;;;;;;8.30;4.68;;;;;;;;;;5050370;28;20032;-73
2022/06/06 05:23:22;;;;;;;8.27;4.43;;;;;;;;;;5050389;28;20067;-73
2022/06/06 05:26:25;;;;;;;9.90;5.07;;;;;;;;;;5050173;28;20104;-73
2022/06/06 05:29:09;;;;;;;6.78;4.55;;;;;;;;;;5050156;28;20033;-72
2022/06/06 05:31:40;;;;;;;7.95;4.75;;;;;;;;;;5050180;28;20036;-73
2022/06/06 05:34:23;;;;;;;9.68;4.68;;;;;;;;;;5050140;28;20029;-73
2022/06/06 05:36:57;;;;;;;8.30;4.70;;;;;;;;;;5049981;28;20036;-73
2022/06/06 05:39:37;;;;;;;8.45;4.95;;;;;;;;;;5050417;28;20159;-74
2022/06/06 05:42:29;;;;;;;10.52;4.75;;;;;;;;;;5050161;28;20056;-74
2022/06/06 05:45:10;;;;;;;9.48;5.05;;;;;;;;;;5049980;28;20039;-73
2022/06/06 05:47:44;;;;;;;8.52;4.80;;;;;;;;;;5049886;28;20029;-73
2022/06/06 05:50:26;;;;;;;12.88;5.40;;;;;;;;;;5049902;28;20029;-73
2022/06/06 05:53:06;;;;;;;8.43;5.40;;;;;;;;;;5049829;28;20520;-73
2022/06/06 05:56:06;;;;;;;10.48;5.40;;;;;;;;;;5050159;28;20021;-72
2022/06/06 05:58:31;;;;;;;8.32;5.00;;;;;;;;;;5049987;28;20028;-73
2022/06/06 06:01:04;;;;;;;9.43;4.88;;;;;;;;;;5049934;28;20488;-72
2022/06/06 06:03:30;;;;;;;9.73;4.75;;;;;;;;;;5049691;28;20087;-72
2022/06/06 06:06:27;;;;;;;7.20;4.80;;;;;;;;;;5049634;28;20492;-72
2022/06/06 06:09:15;;;;;;;10.60;5.13;;;;;;;;;;5053954;28;20388;-73
2022/06/06 06:12:05;;;;;;;7.80;4.68;;;;;;;;;;5056927;28;20059;-73
2022/06/06 06:14:50;;;;;;;12.27;5.57;;;;;;;;;;5056580;28;20037;-73
2022/06/06 06:17:21;;;;;;;13.75;5.60;;;;;;;;;;5056228;28;20033;-73
2022/06/06 06:20:01;;;;;;;10.63;4.97;;;;;;;;;;5056286;28;20087;-73
2022/06/06 06:22:34;;;;;;;6.28;4.05;;;;;;;;;;5055879;28;20049;-73
2022/06/06 06:25:02;;;;;;;7.65;4.07;;;;;;;;;;5056166;28;20080;-73
2022/06/06 06:27:31;;;;;;;6.70;3.70;;;;;;;;;;5056065;28;20056;-73
2022/06/06 06:29:57;;;;;;;9.80;3.33;;;;;;;;;;5056597;28;20384;-72
2022/06/06 06:32:31;;;;;;;8.00;3.78;;;;;;;;;;5056239;28;20163;-73
2022/06/06 06:35:11;;;;;;;5.63;3.08;;;;;;;;;;5056899;28;20039;-72
2022/06/06 06:38:09;;;;;;;6.10;3.28;;;;;;;;;;5055761;28;20021;-68
2022/06/06 06:41:01;;;;;;;6.82;3.35;;;;;;;;;;5055671;28;20045;-73
2022/06/06 06:43:45;;;;;;;7.30;3.00;;;;;;;;;;5056145;28;20029;-73
2022/06/06 06:46:18;;;;;;;7.43;2.70;;;;;;;;;;5055976;28;20033;-73
2022/06/06 06:48:46;;;;;;;6.20;3.10;;;;;;;;;;5056195;28;20029;-74
2022/06/06 06:51:21;;;;;;;6.57;2.80;;;;;;;;;;5055986;28;20025;-74
2022/06/06 06:54:05;;;;;;;4.32;2.60;;;;;;;;;;5056432;28;20110;-73
2022/06/06 06:56:45;;;;;;;4.35;2.67;;;;;;;;;;5055789;28;20057;-74
2022/06/06 06:59:13;;;;;;;5.80;2.80;;;;;;;;;;5056102;28;20032;-73
2022/06/06 07:11:15;;;;;;;5.50;2.65;;;;;;;;;;5056360;28;20560;-73
2022/06/06 07:14:12;;;;;;;7.35;2.70;;;;;;;;;;5055546;28;20078;-73
2022/06/06 07:16:39;;;;;;;6.53;2.60;;;;;;;;;;5055666;28;20469;-73
2022/06/06 07:19:16;;;;;;;6.20;2.60;;;;;;;;;;5054995;28;20028;-73
2022/06/06 07:21:43;;;;;;;7.35;2.75;;;;;;;;;;5051821;28;20032;-73
2022/06/06 07:24:11;;;;;;;8.02;2.65;;;;;;;;;;5052716;28;20068;-71
2022/06/06 07:26:41;;;;;;;6.78;2.20;;;;;;;;;;5052301;28;20503;-73
2022/06/06 07:29:10;;;;;;;5.10;2.33;;;;;;;;;;5052845;28;20052;-72
2022/06/06 07:32:01;;;;;;;5.88;2.15;;;;;;;;;;5052330;28;20480;-73
2022/06/06 07:34:52;;;;;;;5.90;2.35;;;;;;;;;;5052378;28;20025;-73
2022/06/06 07:37:33;;;;;;;4.97;2.20;;;;;;;;;;5052245;28;20056;-72
2022/06/06 07:39:58;;;;;;;8.48;2.28;;;;;;;;;;5052400;28;20484;-73
2022/06/06 07:42:47;;;;;;;5.35;2.30;;;;;;;;;;5052613;28;20040;-74
2022/06/06 07:45:19;;;;;;;6.67;2.10;;;;;;;;;;5052448;28;20025;-71
2022/06/06 07:47:51;;;;;;;5.22;2.25;;;;;;;;;;5051970;28;20271;-73
2022/06/06 07:50:33;;;;;;;6.13;2.13;;;;;;;;;;5052432;28;20029;-73
2022/06/06 07:53:16;;;;;;;5.97;2.10;;;;;;;;;;5051981;28;20029;-73
2022/06/06 07:56:13;;;;;;;5.65;2.08;;;;;;;;;;5052039;28;20056;-73
2022/06/06 07:59:01;;;;;;;4.90;2.00;;;;;;;;;;5032199;28;20052;-73
2022/06/06 08:01:54;;;;;;;7.22;1.98;;;;;;;;;;5052121;28;20021;-73
2022/06/06 08:04:47;;;;;;;3.90;1.92;;;;;;;;;;5051758;28;20032;-70
2022/06/06 08:07:33;;;;;;;4.47;1.90;;;;;;;;;;5051752;28;20028;-73
2022/06/06 08:10:06;;;;;;;5.15;2.00;;;;;;;;;;5051715;28;20572;-73
2022/06/06 08:13:02;;;;;;;4.38;2.00;;;;;;;;;;5051792;28;20403;-72
2022/06/06 08:15:55;;;;;;;6.63;2.10;;;;;;;;;;5051583;28;20389;-73
2022/06/06 08:18:32;;;;;;;5.63;2.10;;;;;;;;;;5051772;28;20032;-73
2022/06/06 08:21:05;;;;;;;3.92;1.80;;;;;;;;;;5051406;28;20090;-73
2022/06/06 08:23:34;;;;;;;3.47;1.80;;;;;;;;;;5051344;28;20056;-72
2022/06/06 08:26:01;;;;;;;5.00;2.03;;;;;;;;;;5051214;28;20025;-73
2022/06/06 08:28:29;;;;;;;4.80;1.70;;;;;;;;;;5051723;28;20029;-72
2022/06/06 08:30:55;;;;;;;4.85;1.95;;;;;;;;;;5050999;28;20527;-72
2022/06/06 08:33:22;;;;;;;4.25;2.05;;;;;;;;;;5051149;28;20052;-72
2022/06/06 08:36:09;;;;;;;5.53;2.15;;;;;;;;;;5051439;28;20036;-73
2022/06/06 08:38:38;;;;;;;5.93;2.10;;;;;;;;;;5050931;28;20529;-69
2022/06/06 08:41:15;;;;;;;8.35;2.30;;;;;;;;;;5050937;28;20103;-72
2022/06/06 08:43:40;;;;;;;5.47;2.47;;;;;;;;;;5051085;28;20206;-73
2022/06/06 08:46:15;;;;;;;4.68;2.03;;;;;;;;;;5050970;28;20025;-72
2022/06/06 08:50:44;;;;;;;5.07;2.05;;;;;;;;;;5050943;28;20029;-73
2022/06/06 08:52:23;;;;;;;4.88;2.20;;;;;;;;;;5050786;28;20037;-72
2022/06/06 08:55:16;;;;;;;3.60;1.90;;;;;;;;;;5050775;28;20056;-73
2022/06/06 08:58:03;;;;;;;6.65;2.00;;;;;;;;;;5050447;28;20438;-72
2022/06/06 09:00:52;;;;;;;4.07;1.83;;;;;;;;;;5050607;28;20033;-73
2022/06/06 09:03:35;;;;;;;4.63;2.35;;;;;;;;;;5050616;28;20028;-72
2022/06/06 09:06:12;;;;;;;6.55;2.10;;;;;;;;;;5050763;28;20547;-72
2022/06/06 09:09:08;;;;;;;4.40;2.10;;;;;;;;;;5050484;28;20032;-73
2022/06/06 09:12:10;;;;;;;6.10;1.98;;;;;;;;;;5050558;28;20025;-74
2022/06/06 09:15:30;;;;;;;4.15;2.00;;;;;;;;;;5050470;28;20025;-73
2022/06/06 09:18:18;;;;;;;5.15;2.30;;;;;;;;;;5007821;28;20034;-73
2022/06/06 09:20:57;;;;;;;5.97;2.33;;;;;;;;;;5047928;28;20037;-72
2022/06/06 09:23:35;;;;;;;4.85;2.20;;;;;;;;;;5050143;28;20041;-74
2022/06/06 09:26:07;;;;;;;5.28;2.25;;;;;;;;;;5050279;28;20090;-73
2022/06/06 09:28:57;;;;;;;8.90;2.20;;;;;;;;;;5050148;28;20037;-72
2022/06/06 09:31:35;;;;;;;5.35;2.30;;;;;;;;;;5050098;28;20036;-73
2022/06/06 09:34:28;;;;;;;7.75;2.42;;;;;;;;;;5050021;28;20043;-73
2022/06/06 09:37:31;;;;;;;3.97;2.22;;;;;;;;;;5049986;28;20033;-73
2022/06/06 09:40:16;;;;;;;8.35;2.25;;;;;;;;;;5050140;28;20055;-73
2022/06/06 09:43:03;;;;;;;5.82;1.98;;;;;;;;;;5049450;28;20547;-73
2022/06/06 09:46:10;;;;;;;4.10;1.85;;;;;;;;;;5049961;28;20029;-73
2022/06/06 09:49:00;;;;;;;4.05;2.08;;;;;;;;;;5049636;28;20033;-71
2022/06/06 09:51:29;;;;;;;4.97;1.95;;;;;;;;;;5049703;28;20489;-73
2022/06/06 09:59:34;;;;;;;10.60;4.15;;;;;;;;;;5050130;28;20393;-72
2022/06/06 10:02:11;;;;;;;6.18;2.47;;;;;;;;;;5050080;28;20029;-74
2022/06/06 10:05:21;;;;;;;4.28;1.90;;;;;;;;;;5048586;28;20032;-74
2022/06/06 10:08:30;;;;;;;4.47;1.92;;;;;;;;;;5044787;28;20419;-73
2022/06/06 10:10:58;;;;;;;3.22;1.83;;;;;;;;;;5049528;28;20021;-71
2022/06/06 10:13:41;;;;;;;3.88;1.88;;;;;;;;;;5049694;28;20025;-73
2022/06/06 10:16:33;;;;;;;3.63;1.77;;;;;;;;;;5049754;28;20029;-73
2022/06/06 10:19:05;;;;;;;3.90;1.70;;;;;;;;;;5049140;28;20082;-73
2022/06/06 10:21:33;;;;;;;12.63;2.47;;;;;;;;;;5049576;28;20087;-70
2022/06/06 10:23:58;;;;;;;4.53;2.00;;;;;;;;;;5049328;28;20045;-71
2022/06/06 10:26:34;;;;;;;4.60;1.90;;;;;;;;;;5049709;28;20048;-73
2022/06/06 10:29:23;;;;;;;5.95;2.10;;;;;;;;;;5049224;28;20061;-74
2022/06/06 10:32:10;;;;;;;4.80;1.70;;;;;;;;;;5049508;28;20025;-72
2022/06/06 10:35:20;;;;;;;4.40;1.90;;;;;;;;;;5049681;28;20025;-72
2022/06/06 10:38:10;;;;;;;5.97;2.00;;;;;;;;;;5049276;28;20485;-71
2022/06/06 10:41:20;;;;;;;3.75;2.10;;;;;;;;;;5049547;28;20099;-73
2022/06/06 10:44:16;;;;;;;3.53;1.70;;;;;;;;;;5038603;28;20048;-72
2022/06/06 10:47:16;;;;;;;4.50;1.70;;;;;;;;;;5049293;28;20037;-72
2022/06/06 10:50:12;;;;;;;3.90;2.00;;;;;;;;;;5049346;28;20025;-73
2022/06/06 10:52:49;;;;;;;4.10;2.10;;;;;;;;;;5049256;28;20032;-73
2022/06/06 10:55:39;;;;;;;5.32;1.90;;;;;;;;;;5051844;28;20528;-73
2022/06/06 10:58:37;;;;;;;2.55;1.70;;;;;;;;;;5052933;28;20096;-73
2022/06/06 11:01:48;;;;;;;3.92;1.90;;;;;;;;;;5053468;28;20025;-73
2022/06/06 11:04:39;;;;;;;4.10;1.83;;;;;;;;;;5050679;28;20037;-73
2022/06/06 11:07:10;;;;;;;4.55;1.90;;;;;;;;;;5052755;28;20033;-70
2022/06/06 11:10:00;;;;;;;3.72;2.08;;;;;;;;;;5052748;28;20033;-71
2022/06/06 11:13:11;;;;;;;3.38;2.00;;;;;;;;;;5053222;28;20174;-69
2022/06/06 11:15:51;;;;;;;3.25;1.80;;;;;;;;;;5010614;28;20124;-69
2022/06/06 11:18:33;;;;;;;3.90;2.00;;;;;;;;;;5048499;28;20066;-68
2022/06/06 11:21:19;;;;;;;3.10;1.85;;;;;;;;;;5052349;28;20503;-70
2022/06/06 11:23:50;;;;;;;3.83;2.17;;;;;;;;;;5052373;28;20073;-67
2022/06/06 11:26:31;;;;;;;3.97;1.90;;;;;;;;;;5052464;28;20033;-69
2022/06/06 11:29:10;;;;;;;;;;;;;;;;;;5052928;28;20108;-71
2022/06/06 11:31:36;;;;;;;4.45;2.20;;;;;;;;;;5052761;28;19919;-72
2022/06/06 11:34:10;;;;;;;3.80;1.80;;;;;;;;;;5052338;28;20033;-70
2022/06/06 11:36:38;;;;;;;9.05;2.13;;;;;;;;;;5052112;28;20032;-73
2022/06/06 11:39:18;;;;;;;5.38;2.10;;;;;;;;;;5052116;28;20033;-74
2022/06/06 11:41:49;;;;;;;3.42;2.10;;;;;;;;;;5052252;28;20025;-73
2022/06/06 11:44:45;;;;;;;3.55;1.75;;;;;;;;;;5052246;28;20497;-73
2022/06/06 11:47:36;;;;;;;4.20;1.90;;;;;;;;;;5052202;28;20123;-74
2022/06/06 11:50:07;;;;;;;3.75;1.73;;;;;;;;;;5052071;28;20078;-72
2022/06/06 11:53:05;;;;;;;3.80;1.98;;;;;;;;;;5051911;28;20033;-71
2022/06/06 11:55:42;;;;;;;5.57;2.10;;;;;;;;;;5052040;28;20029;-72
2022/06/06 11:58:29;;;;;;;3.28;1.80;;;;;;;;;;5051834;28;20075;-74
2022/06/06 12:01:18;;;;;;;2.70;1.77;;;;;;;;;;5052186;28;20435;-74
2022/06/06 12:04:19;;;;;;;4.28;1.83;;;;;;;;;;5052137;28;20179;-73
2022/06/06 12:06:46;;;;;;;;;;;;;;;;;;5048630;28;20040;-72
2022/06/06 12:09:35;;;;;;;3.92;1.85;;;;;;;;;;5051763;28;19958;-73
2022/06/06 12:12:57;;;;;;;6.60;2.13;;;;;;;;;;5051604;28;20481;-72
2022/06/06 12:15:50;;;;;;;6.75;1.70;;;;;;;;;;5009446;28;20265;-73
2022/06/06 12:18:25;;;;;;;3.65;1.67;;;;;;;;;;5009315;28;20169;-73
2022/06/06 12:21:09;;;;;;;3.78;1.90;;;;;;;;;;5039108;28;20493;-73
2022/06/06 12:24:08;;;;;;;3.88;1.70;;;;;;;;;;5051250;28;20401;-72
2022/06/06 12:27:16;;;;;;;3.45;1.83;;;;;;;;;;5051834;28;20024;-74
2022/06/06 12:30:08;;;;;;;3.05;1.90;;;;;;;;;;5051016;28;20500;-73
2022/06/06 12:32:46;;;;;;;4.00;1.90;;;;;;;;;;5051186;28;20028;-73
2022/06/06 12:35:20;;;;;;;3.90;1.88;;;;;;;;;;5051308;28;20056;-73
2022/06/06 12:38:07;;;;;;;3.83;1.63;;;;;;;;;;5051214;28;20021;-71
2022/06/06 12:40:47;;;;;;;4.45;1.90;;;;;;;;;;5051207;28;20037;-73
2022/06/06 12:43:13;;;;;;;3.65;2.65;;;;;;;;;;5051203;28;20021;-73
2022/06/06 12:45:57;;;;;;;3.17;1.80;;;;;;;;;;5051223;28;20025;-73
2022/06/06 12:49:06;;;;;;;4.00;1.85;;;;;;;;;;5051091;28;20033;-73
2022/06/06 12:51:39;;;;;;;5.15;1.92;;;;;;;;;;5008391;28;20595;-72
2022/06/06 12:54:24;;;;;;;3.60;1.75;;;;;;;;;;5044152;28;20124;-73
2022/06/06 12:56:56;;;;;;;5.13;1.88;;;;;;;;;;5051217;28;20052;-73
2022/06/06 12:59:25;;;;;;;3.35;1.75;;;;;;;;;;5051040;28;20041;-73
2022/06/06 13:02:17;;;;;;;5.82;1.80;;;;;;;;;;5051250;28;20021;-73
2022/06/06 13:04:46;;;;;;;3.83;1.73;;;;;;;;;;5049361;28;20025;-73
2022/06/06 13:07:36;;;;;;;2.53;1.75;;;;;;;;;;5050775;28;20025;-73
2022/06/06 13:10:27;;;;;;;4.80;1.90;;;;;;;;;;5050636;28;20412;-73
2022/06/06 13:13:40;;;;;;;6.30;1.83;;;;;;;;;;5050679;28;20079;-73
2022/06/06 13:16:24;;;;;;;2.70;1.70;;;;;;;;;;5008475;28;20509;-73
2022/06/06 13:18:49;;;;;;;2.58;1.80;;;;;;;;;;5007100;28;20030;-73
2022/06/06 13:21:27;;;;;;;4.07;1.70;;;;;;;;;;5035085;28;20051;-73
2022/06/06 13:24:12;;;;;;;4.10;1.80;;;;;;;;;;5049958;28;20497;-73
2022/06/06 13:26:55;;;;;;;3.10;1.70;;;;;;;;;;5050346;28;20032;-74
2022/06/06 13:29:31;;;;;;;2.58;1.70;;;;;;;;;;5049010;28;20449;-74
2022/06/06 13:32:30;;;;;;;2.67;1.80;;;;;;;;;;5050421;28;20388;-74
2022/06/06 13:34:56;;;;;;;4.15;1.75;;;;;;;;;;5047570;28;20171;-73
2022/06/06 13:37:52;;;;;;;4.78;1.80;;;;;;;;;;5050076;28;20104;-73
2022/06/06 13:40:37;;;;;;;3.00;1.70;;;;;;;;;;5049853;28;20060;-73
2022/06/06 13:43:29;;;;;;;3.90;1.90;;;;;;;;;;5050250;28;20059;-72
2022/06/06 13:46:10;;;;;;;7.00;2.10;;;;;;;;;;5049982;28;20068;-71
2022/06/06 13:48:58;;;;;;;6.28;1.90;;;;;;;;;;5050515;28;20029;-72
2022/06/06 13:52:21;;;;;;;3.97;2.00;;;;;;;;;;5049806;28;20079;-72
2022/06/06 13:54:47;;;;;;;2.60;1.90;;;;;;;;;;5026753;28;20044;-72
2022/06/06 13:57:23;;;;;;;5.22;2.15;;;;;;;;;;5049873;28;20025;-72
2022/06/06 14:00:04;;;;;;;3.00;1.85;;;;;;;;;;5049544;28;20040;-73
2022/06/06 14:02:32;;;;;;;4.55;2.30;;;;;;;;;;5049814;28;20055;-73
2022/06/06 14:05:05;;;;;;;6.32;2.13;;;;;;;;;;5049991;28;20025;-72
2022/06/06 14:07:49;;;;;;;5.78;2.28;;;;;;;;;;5049938;28;20077;-72
2022/06/06 14:10:18;;;;;;;4.53;2.17;;;;;;;;;;5049443;28;20500;-72
2022/06/06 14:13:05;;;;;;;6.53;2.37;;;;;;;;;;5049551;28;20071;-75
2022/06/06 14:15:40;;;;;;;5.15;2.10;;;;;;;;;;5049635;28;20036;-71
2022/06/06 14:18:09;;;;;;;5.68;2.20;;;;;;;;;;5049571;28;20017;-72
2022/06/06 14:20:41;;;;;;;3.45;1.90;;;;;;;;;;5049420;28;20566;-71
2022/06/06 14:23:30;;;;;;;5.20;2.20;;;;;;;;;;5049259;28;20051;-72
2022/06/06 14:26:08;;;;;;;5.88;2.10;;;;;;;;;;5049737;28;20039;-73
2022/06/06 14:28:46;;;;;;;5.22;2.10;;;;;;;;;;5049698;28;20037;-73
2022/06/06 14:31:45;;;;;;;4.32;2.10;;;;;;;;;;5053301;28;20021;-73
2022/06/06 14:34:31;;;;;;;4.57;2.50;;;;;;;;;;5052811;28;20076;-72
2022/06/06 14:37:15;;;;;;;4.32;2.17;;;;;;;;;;5053512;28;20021;-72
2022/06/06 14:39:46;;;;;;;3.85;2.10;;;;;;;;;;5053383;28;20025;-68
2022/06/06 14:42:14;;;;;;;3.05;1.95;;;;;;;;;;5053658;28;20032;-72
2022/06/06 14:44:47;;;;;;;4.93;1.90;;;;;;;;;;5053262;28;20029;-74
2022/06/06 14:47:21;;;;;;;4.78;2.10;;;;;;;;;;5053653;28;20033;-72
2022/06/06 14:52:51;;;;;;;4.60;2.00;;;;;;;;;;5053198;28;20607;-73
2022/06/06 14:55:20;;;;;;;3.73;2.17;;;;;;;;;;5053366;28;20110;-73
2022/06/06 14:57:45;;;;;;;4.20;2.05;;;;;;;;;;5053260;28;20251;-70
2022/06/06 15:00:15;;;;;;;5.05;2.10;;;;;;;;;;5053154;28;20033;-73
2022/06/06 15:02:41;;;;;;;4.00;2.00;;;;;;;;;;5053031;28;20431;-72
2022/06/06 15:05:15;;;;;;;6.28;2.15;;;;;;;;;;5053085;28;20033;-73
2022/06/06 15:07:53;;;;;;;5.03;2.20;;;;;;;;;;5053045;28;20029;-73
2022/06/06 15:10:38;;;;;;;3.95;2.05;;;;;;;;;;5052739;28;20033;-73
2022/06/06 15:13:05;;;;;;;6.38;2.10;;;;;;;;;;5052702;28;20025;-72
2022/06/06 15:15:33;;;;;;;3.83;1.67;;;;;;;;;;5053093;28;20029;-73
2022/06/06 15:18:00;;;;;;;3.58;1.95;;;;;;;;;;5053016;28;20021;-72
2022/06/06 15:20:29;;;;;;;5.05;2.30;;;;;;;;;;5051117;28;20025;-72
2022/06/06 15:23:09;;;;;;;3.70;2.03;;;;;;;;;;5052530;28;20128;-73
2022/06/06 15:25:45;;;;;;;7.22;2.20;;;;;;;;;;5052532;28;20025;-71
2022/06/06 15:28:27;;;;;;;6.40;1.98;;;;;;;;;;5052642;28;20033;-71
2022/06/06 15:30:55;;;;;;;2.92;2.13;;;;;;;;;;5052397;28;20084;-72
2022/06/06 15:33:29;;;;;;;3.65;1.90;;;;;;;;;;5052451;28;20028;-72
2022/06/06 15:36:17;;;;;;;5.68;2.20;;;;;;;;;;5052427;28;20469;-72
2022/06/06 15:38:50;;;;;;;5.13;2.00;;;;;;;;;;5052672;28;20028;-73
2022/06/06 15:41:18;;;;;;;4.93;2.08;;;;;;;;;;5051177;28;20021;-73
2022/06/06 15:43:52;;;;;;;4.18;2.03;;;;;;;;;;5052715;28;20085;-72
2022/06/06 15:46:59;;;;;;;4.80;2.00;;;;;;;;;;5052223;28;20496;-72
2022/06/06 15:49:30;;;;;;;6.00;2.10;;;;;;;;;;5052176;28;20044;-72
2022/06/06 15:52:17;;;;;;;3.33;2.00;;;;;;;;;;5051828;28;20025;-73
2022/06/06 15:55:42;;;;;;;7.03;2.03;;;;;;;;;;5052077;28;20029;-71
2022/06/06 15:58:18;;;;;;;7.05;2.05;;;;;;;;;;5010021;28;20406;-73
2022/06/06 16:00:55;;;;;;;5.18;1.90;;;;;;;;;;5052103;28;20044;-71
2022/06/06 16:03:39;;;;;;;2.85;2.20;;;;;;;;;;5052040;28;20459;-73
2022/06/06 16:06:06;;;;;;;3.70;2.00;;;;;;;;;;5051841;28;20029;-73
2022/06/06 16:08:46;;;;;;;7.43;2.20;;;;;;;;;;5052019;28;20036;-71
2022/06/06 16:11:20;;;;;;;5.75;2.08;;;;;;;;;;5051601;28;20442;-72
2022/06/06 16:14:11;;;;;;;2.78;1.90;;;;;;;;;;5051738;28;20115;-72
2022/06/06 16:16:48;;;;;;;6.13;2.10;;;;;;;;;;5051680;28;20017;-72
2022/06/06 16:20:00;;;;;;;4.10;2.20;;;;;;;;;;5051424;28;20032;-72
2022/06/06 16:22:29;;;;;;;4.50;2.17;;;;;;;;;;5048990;28;20041;-69
2022/06/06 16:25:02;;;;;;;6.10;2.10;;;;;;;;;;5051430;28;20021;-71